createdAt,value
2023-04-18T00:00:09.315Z,8.00
2023-04-18T00:01:09.280Z,7.99
2023-04-18T00:02:09.402Z,8.00
2023-04-18T00:03:09.571Z,8.00
2023-04-18T00:04:09.444Z,8.02
2023-04-18T00:05:09.326Z,8.00
2023-04-18T00:06:09.242Z,7.99
2023-04-18T00:07:09.215Z,7.95
2023-04-18T00:08:09.239Z,7.99
2023-04-18T00:09:09.262Z,7.99
2023-04-18T00:10:09.188Z,7.99
2023-04-18T00:11:09.201Z,7.96
2023-04-18T00:12:09.177Z,7.95
2023-04-18T00:13:09.139Z,7.95
2023-04-18T00:14:09.137Z,7.95
2023-04-18T00:15:09.141Z,7.92
2023-04-18T00:16:09.096Z,7.92
2023-04-18T00:17:09.148Z,7.92
2023-04-18T00:18:09.151Z,7.89
2023-04-18T00:19:09.223Z,7.89
2023-04-18T00:20:09.058Z,7.89
2023-04-18T00:21:09.053Z,7.91
2023-04-18T00:22:09.059Z,7.92
2023-04-18T00:23:09.596Z,7.92
2023-04-18T00:24:09.009Z,7.89
2023-04-18T00:25:09.008Z,7.89
2023-04-18T00:26:09.008Z,7.88
2023-04-18T00:27:09.007Z,7.88
2023-04-18T00:28:08.979Z,7.88
2023-04-18T00:29:08.961Z,7.86
2023-04-18T00:30:09.010Z,7.85
2023-04-18T00:31:09.035Z,7.85
2023-04-18T00:32:08.942Z,7.86
2023-04-18T00:33:08.962Z,7.85
2023-04-18T00:34:08.916Z,7.85
2023-04-18T00:35:08.897Z,7.84
2023-04-18T00:36:08.911Z,7.85
2023-04-18T00:37:08.895Z,7.85
2023-04-18T00:38:08.869Z,7.82
2023-04-18T00:39:08.878Z,7.82
2023-04-18T00:40:08.835Z,7.82
2023-04-18T00:41:08.829Z,7.81
2023-04-18T00:42:08.829Z,7.82
2023-04-18T00:43:08.806Z,7.82
2023-04-18T00:44:08.789Z,7.84
2023-04-18T00:45:08.782Z,7.86
2023-04-18T00:46:08.837Z,7.84
2023-04-18T00:47:08.766Z,7.86
2023-04-18T00:48:08.807Z,7.86
2023-04-18T00:49:08.760Z,7.88
2023-04-18T00:50:08.720Z,7.86
2023-04-18T00:51:08.718Z,7.85
2023-04-18T00:52:08.721Z,7.82
2023-04-18T00:53:08.701Z,7.82
2023-04-18T00:54:08.685Z,7.81
2023-04-18T00:55:08.668Z,7.81
2023-04-18T00:56:08.672Z,7.81
2023-04-18T00:57:08.655Z,7.77
2023-04-18T00:58:08.652Z,7.76
2023-04-18T00:59:08.629Z,7.79
2023-04-18T01:00:08.628Z,7.81
2023-04-18T01:01:08.656Z,7.79
2023-04-18T01:02:08.619Z,7.81
2023-04-18T01:03:08.796Z,7.79
2023-04-18T01:04:08.675Z,7.77
2023-04-18T01:05:08.564Z,7.77
2023-04-18T01:06:08.551Z,7.77
2023-04-18T01:07:08.542Z,7.79
2023-04-18T01:08:08.543Z,7.81
2023-04-18T01:09:08.519Z,7.79
2023-04-18T01:10:08.513Z,7.81
2023-04-18T01:11:08.490Z,7.79
2023-04-18T01:12:08.498Z,7.79
2023-04-18T01:13:08.480Z,7.81
2023-04-18T01:14:08.462Z,7.81
2023-04-18T01:15:08.465Z,7.84
2023-04-18T01:16:08.567Z,7.82
2023-04-18T01:17:08.447Z,7.86
2023-04-18T01:18:08.432Z,7.85
2023-04-18T01:19:08.423Z,7.86
2023-04-18T01:20:08.432Z,7.86
2023-04-18T01:21:08.402Z,7.84
2023-04-18T01:22:08.392Z,7.82
2023-04-18T01:23:08.386Z,7.82
2023-04-18T01:24:08.403Z,7.81
2023-04-18T01:25:08.348Z,7.81
2023-04-18T01:26:08.346Z,7.81
2023-04-18T01:27:08.336Z,7.79
2023-04-18T01:28:08.334Z,7.79
2023-04-18T01:29:08.297Z,7.79
2023-04-18T01:30:08.294Z,7.81
2023-04-18T01:31:08.293Z,7.81
2023-04-18T01:32:08.261Z,7.79
2023-04-18T01:33:08.273Z,7.77
2023-04-18T01:34:08.239Z,7.76
2023-04-18T01:35:08.251Z,7.76
2023-04-18T01:36:08.227Z,7.74
2023-04-18T01:37:08.204Z,7.76
2023-04-18T01:38:08.214Z,7.76
2023-04-18T01:39:08.196Z,7.76
2023-04-18T01:40:08.199Z,7.76
2023-04-18T01:41:08.174Z,7.77
2023-04-18T01:42:08.167Z,7.74
2023-04-18T01:43:08.144Z,7.71
2023-04-18T01:44:08.135Z,7.71
2023-04-18T01:45:08.133Z,7.71
2023-04-18T01:46:08.130Z,7.71
2023-04-18T01:47:08.093Z,7.70
2023-04-18T01:48:08.085Z,7.67
2023-04-18T01:49:08.093Z,7.67
2023-04-18T01:50:08.089Z,7.67
2023-04-18T01:51:08.057Z,7.67
2023-04-18T01:52:08.039Z,7.67
2023-04-18T01:53:08.045Z,7.66
2023-04-18T01:54:08.042Z,7.66
2023-04-18T01:55:08.018Z,7.66
2023-04-18T01:56:07.991Z,7.67
2023-04-18T01:57:07.985Z,7.69
2023-04-18T01:58:07.970Z,7.66
2023-04-18T01:59:07.986Z,7.63
2023-04-18T02:00:07.962Z,7.66
2023-04-18T02:01:07.992Z,7.63
2023-04-18T02:02:08.002Z,7.63
2023-04-18T02:03:08.094Z,7.66
2023-04-18T02:04:08.057Z,7.63
2023-04-18T02:05:07.898Z,7.63
2023-04-18T02:06:07.894Z,7.62
2023-04-18T02:07:07.891Z,7.62
2023-04-18T02:08:07.862Z,7.62
2023-04-18T02:09:07.849Z,7.60
2023-04-18T02:10:07.859Z,7.62
2023-04-18T02:11:07.901Z,7.60
2023-04-18T02:12:07.815Z,7.60
2023-04-18T02:13:07.818Z,7.60
2023-04-18T02:14:07.794Z,7.60
2023-04-18T02:15:07.827Z,7.58
2023-04-18T02:16:07.939Z,7.55
2023-04-18T02:17:07.792Z,7.55
2023-04-18T02:18:07.822Z,7.58
2023-04-18T02:19:07.777Z,7.57
2023-04-18T02:20:07.760Z,7.58
2023-04-18T02:21:07.766Z,7.57
2023-04-18T02:22:07.741Z,7.57
2023-04-18T02:23:07.725Z,7.57
2023-04-18T02:24:07.704Z,7.57
2023-04-18T02:25:07.713Z,7.55
2023-04-18T02:26:07.706Z,7.54
2023-04-18T02:27:07.680Z,7.54
2023-04-18T02:28:07.662Z,7.54
2023-04-18T02:29:07.657Z,7.54
2023-04-18T02:30:07.650Z,7.55
2023-04-18T02:31:07.630Z,7.55
2023-04-18T02:32:07.677Z,7.57
2023-04-18T02:33:07.754Z,7.57
2023-04-18T02:34:07.586Z,7.55
2023-04-18T02:35:07.611Z,7.55
2023-04-18T02:36:07.608Z,7.54
2023-04-18T02:37:07.567Z,7.54
2023-04-18T02:38:07.553Z,7.52
2023-04-18T02:39:07.567Z,7.52
2023-04-18T02:40:07.542Z,7.54
2023-04-18T02:41:07.526Z,7.54
2023-04-18T02:42:07.516Z,7.54
2023-04-18T02:43:07.492Z,7.52
2023-04-18T02:44:07.494Z,7.55
2023-04-18T02:45:07.483Z,7.55
2023-04-18T02:46:07.507Z,7.57
2023-04-18T02:47:07.452Z,7.58
2023-04-18T02:48:07.462Z,7.57
2023-04-18T02:49:07.431Z,7.54
2023-04-18T02:50:07.445Z,7.52
2023-04-18T02:51:07.417Z,7.55
2023-04-18T02:52:07.415Z,7.55
2023-04-18T02:53:07.385Z,7.55
2023-04-18T02:54:07.370Z,7.57
2023-04-18T02:55:07.382Z,7.55
2023-04-18T02:56:07.332Z,7.55
2023-04-18T02:57:07.361Z,7.55
2023-04-18T02:58:07.341Z,7.58
2023-04-18T02:59:07.335Z,7.60
2023-04-18T03:00:07.319Z,7.60
2023-04-18T03:01:07.362Z,7.62
2023-04-18T03:02:07.348Z,7.63
2023-04-18T03:03:07.299Z,7.60
2023-04-18T03:04:07.246Z,7.62
2023-04-18T03:05:07.366Z,7.60
2023-04-18T03:06:07.213Z,7.60
2023-04-18T03:07:07.254Z,7.60
2023-04-18T03:08:07.244Z,7.60
2023-04-18T03:09:07.185Z,7.60
2023-04-18T03:10:07.219Z,7.58
2023-04-18T03:11:07.206Z,7.58
2023-04-18T03:12:07.198Z,7.57
2023-04-18T03:13:07.183Z,7.55
2023-04-18T03:14:07.191Z,7.55
2023-04-18T03:15:07.160Z,7.55
2023-04-18T03:16:07.187Z,7.54
2023-04-18T03:17:07.145Z,7.51
2023-04-18T03:18:07.164Z,7.50
2023-04-18T03:19:07.108Z,7.48
2023-04-18T03:20:07.070Z,7.48
2023-04-18T03:21:07.122Z,7.48
2023-04-18T03:22:07.054Z,7.47
2023-04-18T03:23:07.037Z,7.47
2023-04-18T03:24:07.040Z,7.45
2023-04-18T03:25:07.047Z,7.45
2023-04-18T03:26:06.999Z,7.45
2023-04-18T03:27:06.995Z,7.45
2023-04-18T03:28:06.997Z,7.48
2023-04-18T03:29:07.004Z,7.48
2023-04-18T03:30:06.969Z,7.51
2023-04-18T03:31:07.043Z,7.54
2023-04-18T03:32:06.966Z,7.55
2023-04-18T03:33:06.960Z,7.55
2023-04-18T03:34:06.934Z,7.55
2023-04-18T03:35:06.938Z,7.54
2023-04-18T03:36:06.932Z,7.57
2023-04-18T03:37:06.923Z,7.60
2023-04-18T03:38:06.892Z,7.60
2023-04-18T03:39:06.907Z,7.63
2023-04-18T03:40:06.883Z,7.63
2023-04-18T03:41:06.866Z,7.63
2023-04-18T03:42:06.848Z,7.63
2023-04-18T03:43:06.819Z,7.63
2023-04-18T03:44:06.819Z,7.66
2023-04-18T03:45:06.782Z,7.67
2023-04-18T03:46:06.851Z,7.66
2023-04-18T03:47:06.804Z,7.67
2023-04-18T03:48:06.797Z,7.69
2023-04-18T03:49:06.786Z,7.70
2023-04-18T03:50:06.754Z,7.70
2023-04-18T03:51:06.753Z,7.70
2023-04-18T03:52:06.739Z,7.69
2023-04-18T03:53:06.762Z,7.67
2023-04-18T03:54:06.706Z,7.63
2023-04-18T03:55:06.687Z,7.63
2023-04-18T03:56:06.696Z,7.62
2023-04-18T03:57:06.703Z,7.57
2023-04-18T03:58:06.700Z,7.57
2023-04-18T03:59:06.658Z,7.54
2023-04-18T04:00:06.648Z,7.52
2023-04-18T04:01:06.613Z,7.54
2023-04-18T04:02:06.637Z,7.55
2023-04-18T04:03:06.787Z,7.55
2023-04-18T04:04:06.731Z,7.57
2023-04-18T04:05:06.658Z,7.60
2023-04-18T04:06:06.602Z,7.60
2023-04-18T04:07:06.582Z,7.66
2023-04-18T04:08:06.541Z,7.63
2023-04-18T04:09:06.554Z,7.63
2023-04-18T04:10:06.533Z,7.63
2023-04-18T04:11:06.530Z,7.60
2023-04-18T04:12:06.498Z,7.63
2023-04-18T04:13:06.510Z,7.62
2023-04-18T04:14:06.508Z,7.63
2023-04-18T04:15:06.471Z,7.58
2023-04-18T04:16:06.528Z,7.58
2023-04-18T04:17:06.483Z,7.55
2023-04-18T04:18:06.531Z,7.55
2023-04-18T04:19:06.474Z,7.55
2023-04-18T04:20:06.433Z,7.54
2023-04-18T04:21:06.436Z,7.52
2023-04-18T04:22:06.417Z,7.52
2023-04-18T04:23:06.400Z,7.52
2023-04-18T04:24:06.378Z,7.52
2023-04-18T04:25:06.396Z,7.54
2023-04-18T04:26:06.357Z,7.52
2023-04-18T04:27:06.369Z,7.52
2023-04-18T04:28:06.333Z,7.52
2023-04-18T04:29:06.320Z,7.52
2023-04-18T04:30:06.313Z,7.52
2023-04-18T04:31:06.300Z,7.54
2023-04-18T04:32:06.387Z,7.51
2023-04-18T04:33:06.399Z,7.52
2023-04-18T04:34:06.262Z,7.52
2023-04-18T04:35:06.263Z,7.54
2023-04-18T04:36:06.264Z,7.55
2023-04-18T04:37:06.207Z,7.55
2023-04-18T04:38:06.267Z,7.55
2023-04-18T04:39:06.222Z,7.57
2023-04-18T04:40:06.199Z,7.58
2023-04-18T04:41:06.186Z,7.58
2023-04-18T04:42:06.181Z,7.60
2023-04-18T04:43:06.186Z,7.58
2023-04-18T04:44:06.137Z,7.60
2023-04-18T04:45:06.172Z,7.58
2023-04-18T04:46:06.180Z,7.58
2023-04-18T04:47:06.108Z,7.55
2023-04-18T04:48:06.305Z,7.55
2023-04-18T04:49:06.114Z,7.57
2023-04-18T04:50:06.106Z,7.57
2023-04-18T04:51:06.075Z,7.58
2023-04-18T04:52:06.087Z,7.58
2023-04-18T04:53:06.053Z,7.58
2023-04-18T04:54:06.066Z,7.58
2023-04-18T04:55:06.044Z,7.57
2023-04-18T04:56:06.043Z,7.55
2023-04-18T04:57:06.029Z,7.54
2023-04-18T04:58:06.015Z,7.55
2023-04-18T04:59:06.015Z,7.54
2023-04-18T05:00:05.994Z,7.54
2023-04-18T05:01:06.010Z,7.54
2023-04-18T05:02:06.055Z,7.52
2023-04-18T05:03:06.038Z,7.51
2023-04-18T05:04:06.064Z,7.52
2023-04-18T05:05:05.945Z,7.52
2023-04-18T05:06:05.911Z,7.51
2023-04-18T05:07:05.953Z,7.54
2023-04-18T05:08:05.893Z,7.54
2023-04-18T05:09:05.850Z,7.54
2023-04-18T05:10:05.882Z,7.57
2023-04-18T05:11:05.856Z,7.57
2023-04-18T05:12:05.852Z,7.57
2023-04-18T05:13:05.857Z,7.57
2023-04-18T05:14:05.847Z,7.58
2023-04-18T05:15:05.810Z,7.57
2023-04-18T05:16:05.824Z,7.57
2023-04-18T05:17:05.885Z,7.57
2023-04-18T05:18:05.835Z,7.60
2023-04-18T05:19:05.782Z,7.60
2023-04-18T05:20:05.771Z,7.62
2023-04-18T05:21:05.736Z,7.62
2023-04-18T05:22:05.724Z,7.63
2023-04-18T05:23:05.748Z,7.63
2023-04-18T05:24:05.724Z,7.67
2023-04-18T05:25:05.700Z,7.67
2023-04-18T05:26:05.694Z,7.69
2023-04-18T05:27:05.693Z,7.63
2023-04-18T05:28:05.679Z,7.58
2023-04-18T05:29:05.671Z,7.57
2023-04-18T05:30:05.655Z,7.57
2023-04-18T05:31:05.716Z,7.55
2023-04-18T05:32:05.634Z,7.57
2023-04-18T05:33:05.693Z,7.55
2023-04-18T05:34:05.628Z,7.54
2023-04-18T05:35:05.586Z,7.54
2023-04-18T05:36:05.580Z,7.52
2023-04-18T05:37:05.579Z,7.52
2023-04-18T05:38:05.564Z,7.48
2023-04-18T05:39:05.568Z,7.47
2023-04-18T05:40:05.528Z,7.47
2023-04-18T05:41:05.540Z,7.47
2023-04-18T05:42:05.509Z,7.47
2023-04-18T05:43:05.501Z,7.45
2023-04-18T05:44:06.016Z,7.47
2023-04-18T05:45:05.488Z,7.48
2023-04-18T05:46:05.537Z,7.47
2023-04-18T05:47:05.479Z,7.45
2023-04-18T05:48:05.481Z,7.45
2023-04-18T05:49:05.430Z,7.44
2023-04-18T05:50:05.455Z,7.44
2023-04-18T05:51:05.414Z,7.44
2023-04-18T05:52:05.421Z,7.44
2023-04-18T05:53:05.392Z,7.44
2023-04-18T05:54:05.395Z,7.44
2023-04-18T05:55:05.371Z,7.45
2023-04-18T05:56:05.353Z,7.45
2023-04-18T05:57:05.361Z,7.47
2023-04-18T05:58:05.379Z,7.48
2023-04-18T05:59:05.341Z,7.45
2023-04-18T06:00:05.330Z,7.44
2023-04-18T06:01:05.305Z,7.44
2023-04-18T06:02:05.345Z,7.45
2023-04-18T06:03:06.738Z,7.47
2023-04-18T06:04:05.445Z,7.48
2023-04-18T06:05:05.508Z,7.47
2023-04-18T06:06:05.276Z,7.47
2023-04-18T06:07:05.248Z,7.45
2023-04-18T06:08:05.242Z,7.47
2023-04-18T06:09:05.252Z,7.47
2023-04-18T06:10:05.232Z,7.47
2023-04-18T06:11:05.172Z,7.50
2023-04-18T06:12:05.193Z,7.51
2023-04-18T06:13:05.181Z,7.50
2023-04-18T06:14:05.180Z,7.48
2023-04-18T06:15:05.147Z,7.47
2023-04-18T06:16:05.190Z,7.47
2023-04-18T06:17:05.103Z,7.48
2023-04-18T06:18:05.145Z,7.48
2023-04-18T06:19:05.213Z,7.47
2023-04-18T06:20:05.103Z,7.48
2023-04-18T06:21:05.085Z,7.48
2023-04-18T06:22:05.093Z,7.50
2023-04-18T06:23:05.070Z,7.48
2023-04-18T06:24:05.035Z,7.51
2023-04-18T06:25:05.048Z,7.51
2023-04-18T06:26:05.055Z,7.50
2023-04-18T06:27:05.052Z,7.50
2023-04-18T06:28:05.012Z,7.45
2023-04-18T06:29:05.002Z,7.47
2023-04-18T06:30:04.966Z,7.48
2023-04-18T06:31:04.970Z,7.48
2023-04-18T06:32:05.031Z,7.48
2023-04-18T06:33:05.090Z,7.47
2023-04-18T06:34:04.961Z,7.47
2023-04-18T06:35:04.942Z,7.48
2023-04-18T06:36:04.932Z,7.50
2023-04-18T06:37:04.914Z,7.51
2023-04-18T06:38:04.876Z,7.51
2023-04-18T06:39:04.906Z,7.52
2023-04-18T06:40:04.877Z,7.51
2023-04-18T06:41:04.853Z,7.51
2023-04-18T06:42:04.868Z,7.50
2023-04-18T06:43:04.837Z,7.50
2023-04-18T06:44:04.991Z,7.45
2023-04-18T06:45:04.860Z,7.47
2023-04-18T06:46:04.891Z,7.47
2023-04-18T06:47:04.788Z,7.47
2023-04-18T06:48:04.812Z,7.50
2023-04-18T06:49:04.774Z,7.51
2023-04-18T06:50:04.782Z,7.51
2023-04-18T06:51:04.767Z,7.52
2023-04-18T06:52:04.733Z,7.55
2023-04-18T06:53:04.731Z,7.57
2023-04-18T06:54:04.695Z,7.55
2023-04-18T06:55:04.778Z,7.58
2023-04-18T06:56:04.714Z,7.58
2023-04-18T06:57:04.725Z,7.55
2023-04-18T06:58:04.671Z,7.54
2023-04-18T06:59:04.658Z,7.51
2023-04-18T07:00:04.722Z,7.50
2023-04-18T07:01:04.652Z,7.45
2023-04-18T07:02:04.697Z,7.47
2023-04-18T07:03:04.842Z,7.45
2023-04-18T07:04:04.728Z,7.47
2023-04-18T07:05:04.610Z,7.45
2023-04-18T07:06:04.583Z,7.48
2023-04-18T07:07:04.540Z,7.47
2023-04-18T07:08:04.565Z,7.45
2023-04-18T07:09:04.554Z,7.45
2023-04-18T07:10:04.543Z,7.47
2023-04-18T07:11:04.528Z,7.45
2023-04-18T07:12:04.526Z,7.45
2023-04-18T07:13:04.515Z,7.42
2023-04-18T07:14:04.502Z,7.45
2023-04-18T07:15:04.494Z,7.45
2023-04-18T07:16:04.500Z,7.44
2023-04-18T07:17:04.502Z,7.44
2023-04-18T07:18:04.481Z,7.41
2023-04-18T07:19:04.454Z,7.39
2023-04-18T07:20:04.442Z,7.39
2023-04-18T07:21:04.424Z,7.37
2023-04-18T07:22:04.418Z,7.39
2023-04-18T07:23:04.383Z,7.37
2023-04-18T07:24:04.405Z,7.39
2023-04-18T07:25:04.399Z,7.37
2023-04-18T07:26:04.362Z,7.37
2023-04-18T07:27:04.345Z,7.39
2023-04-18T07:28:04.358Z,7.41
2023-04-18T07:29:04.334Z,7.37
2023-04-18T07:30:04.351Z,7.39
2023-04-18T07:31:04.380Z,7.41
2023-04-18T07:32:05.692Z,7.41
2023-04-18T07:33:04.353Z,7.39
2023-04-18T07:34:04.310Z,7.39
2023-04-18T07:35:04.257Z,7.41
2023-04-18T07:36:04.262Z,7.42
2023-04-18T07:37:04.268Z,7.42
2023-04-18T07:38:04.227Z,7.45
2023-04-18T07:39:04.254Z,7.47
2023-04-18T07:40:04.232Z,7.44
2023-04-18T07:41:04.186Z,7.45
2023-04-18T07:42:04.205Z,7.44
2023-04-18T07:43:04.152Z,7.45
2023-04-18T07:44:04.172Z,7.45
2023-04-18T07:45:04.168Z,7.45
2023-04-18T07:46:04.173Z,7.45
2023-04-18T07:47:04.148Z,7.48
2023-04-18T07:48:04.247Z,7.47
2023-04-18T07:49:04.091Z,7.47
2023-04-18T07:50:04.085Z,7.42
2023-04-18T07:51:04.102Z,7.41
2023-04-18T07:52:04.079Z,7.42
2023-04-18T07:53:04.061Z,7.44
2023-04-18T07:54:04.026Z,7.47
2023-04-18T07:55:04.059Z,7.47
2023-04-18T07:56:04.040Z,7.45
2023-04-18T07:57:04.032Z,7.47
2023-04-18T07:58:04.026Z,7.50
2023-04-18T07:59:04.020Z,7.52
2023-04-18T08:00:03.965Z,7.55
2023-04-18T08:01:03.983Z,7.57
2023-04-18T08:02:03.989Z,7.58
2023-04-18T08:03:04.116Z,7.60
2023-04-18T08:04:04.369Z,7.60
2023-04-18T08:05:04.051Z,7.58
2023-04-18T08:06:03.906Z,7.57
2023-04-18T08:07:04.007Z,7.55
2023-04-18T08:08:04.017Z,7.57
2023-04-18T08:09:03.883Z,7.57
2023-04-18T08:10:03.866Z,7.57
2023-04-18T08:11:03.879Z,7.57
2023-04-18T08:12:03.866Z,7.58
2023-04-18T08:13:03.850Z,7.57
2023-04-18T08:14:03.853Z,7.60
2023-04-18T08:15:03.827Z,7.62
2023-04-18T08:16:03.820Z,7.62
2023-04-18T08:17:03.825Z,7.62
2023-04-18T08:18:03.890Z,7.62
2023-04-18T08:19:03.799Z,7.60
2023-04-18T08:20:03.793Z,7.60
2023-04-18T08:21:03.759Z,7.62
2023-04-18T08:22:03.767Z,7.62
2023-04-18T08:23:08.435Z,7.62
2023-04-18T08:24:03.736Z,7.60
2023-04-18T08:25:05.355Z,7.58
2023-04-18T08:26:03.701Z,7.60
2023-04-18T08:27:03.713Z,7.60
2023-04-18T08:28:03.699Z,7.60
2023-04-18T08:29:03.664Z,7.66
2023-04-18T08:30:03.684Z,7.63
2023-04-18T08:31:03.618Z,7.66
2023-04-18T08:32:03.803Z,7.67
2023-04-18T08:33:03.669Z,7.67
2023-04-18T08:34:05.110Z,7.67
2023-04-18T08:35:03.584Z,7.67
2023-04-18T08:36:03.725Z,7.70
2023-04-18T08:37:03.550Z,7.73
2023-04-18T08:38:03.571Z,7.71
2023-04-18T08:39:03.563Z,7.67
2023-04-18T08:40:03.533Z,7.69
2023-04-18T08:41:03.544Z,7.70
2023-04-18T08:42:03.530Z,7.71
2023-04-18T08:43:03.489Z,7.71
2023-04-18T08:44:03.500Z,7.73
2023-04-18T08:45:03.494Z,7.76
2023-04-18T08:46:03.623Z,7.77
2023-04-18T08:47:03.474Z,7.79
2023-04-18T08:48:03.783Z,7.81
2023-04-18T08:49:03.453Z,7.82
2023-04-18T08:50:03.416Z,7.84
2023-04-18T08:51:03.436Z,7.89
2023-04-18T08:52:03.422Z,7.92
2023-04-18T08:53:03.417Z,7.94
2023-04-18T08:54:03.397Z,7.99
2023-04-18T08:55:03.389Z,7.96
2023-04-18T08:56:03.372Z,7.92
2023-04-18T08:57:03.376Z,7.92
2023-04-18T08:58:03.353Z,7.89
2023-04-18T08:59:03.338Z,7.92
2023-04-18T09:00:03.331Z,7.91
2023-04-18T09:01:03.452Z,7.89
2023-04-18T09:02:03.307Z,7.91
2023-04-18T09:03:03.533Z,7.92
2023-04-18T09:04:03.330Z,7.94
2023-04-18T09:05:03.311Z,7.94
2023-04-18T09:06:03.292Z,7.92
2023-04-18T09:07:03.248Z,7.92
2023-04-18T09:08:03.227Z,7.92
2023-04-18T09:09:03.255Z,7.94
2023-04-18T09:10:03.221Z,7.94
2023-04-18T09:11:03.240Z,7.92
2023-04-18T09:12:03.203Z,7.94
2023-04-18T09:13:03.582Z,7.95
2023-04-18T09:14:03.183Z,7.96
2023-04-18T09:15:03.134Z,8.02
2023-04-18T09:16:03.136Z,8.03
2023-04-18T09:17:03.195Z,8.00
2023-04-18T09:18:03.480Z,8.00
2023-04-18T09:19:04.220Z,8.00
2023-04-18T09:20:03.118Z,8.04
2023-04-18T09:21:03.101Z,8.06
2023-04-18T09:22:03.094Z,8.06
2023-04-18T09:23:03.071Z,8.04
2023-04-18T09:24:03.051Z,8.06
2023-04-18T09:25:03.068Z,8.10
2023-04-18T09:26:03.051Z,8.12
2023-04-18T09:27:03.056Z,8.12
2023-04-18T09:28:03.031Z,8.12
2023-04-18T09:29:02.977Z,8.13
2023-04-18T09:30:02.999Z,8.14
2023-04-18T09:31:03.042Z,8.18
2023-04-18T09:32:02.979Z,8.17
2023-04-18T09:33:03.540Z,8.14
2023-04-18T09:34:02.967Z,8.17
2023-04-18T09:35:04.662Z,8.17
2023-04-18T09:36:02.899Z,8.17
2023-04-18T09:37:02.939Z,8.20
2023-04-18T09:38:02.911Z,8.22
2023-04-18T09:39:02.906Z,8.22
2023-04-18T09:40:02.890Z,8.25
2023-04-18T09:41:02.904Z,8.27
2023-04-18T09:42:02.857Z,8.28
2023-04-18T09:43:02.847Z,8.32
2023-04-18T09:44:02.832Z,8.32
2023-04-18T09:45:02.851Z,8.34
2023-04-18T09:46:02.839Z,8.36
2023-04-18T09:47:02.801Z,8.37
2023-04-18T09:48:02.843Z,8.40
2023-04-18T09:49:02.787Z,8.40
2023-04-18T09:50:02.790Z,8.43
2023-04-18T09:51:02.783Z,8.47
2023-04-18T09:52:02.732Z,8.50
2023-04-18T09:53:02.749Z,8.55
2023-04-18T09:54:02.717Z,8.57
2023-04-18T09:55:02.731Z,8.55
2023-04-18T09:56:02.719Z,8.57
2023-04-18T09:57:02.710Z,8.57
2023-04-18T09:58:02.686Z,8.58
2023-04-18T09:59:02.667Z,8.61
2023-04-18T10:00:02.630Z,8.63
2023-04-18T10:01:02.695Z,8.65
2023-04-18T10:02:02.710Z,8.67
2023-04-18T10:03:02.740Z,8.64
2023-04-18T10:04:02.676Z,8.68
2023-04-18T10:05:02.676Z,8.71
2023-04-18T10:06:02.590Z,8.71
2023-04-18T10:07:02.601Z,8.71
2023-04-18T10:08:02.539Z,8.75
2023-04-18T10:09:02.584Z,8.73
2023-04-18T10:10:02.545Z,8.73
2023-04-18T10:11:02.542Z,8.75
2023-04-18T10:12:02.558Z,8.80
2023-04-18T10:13:02.518Z,8.80
2023-04-18T10:14:02.508Z,8.80
2023-04-18T10:15:02.519Z,8.79
2023-04-18T10:16:02.505Z,8.79
2023-04-18T10:17:02.479Z,8.78
2023-04-18T10:18:05.254Z,8.76
2023-04-18T10:19:02.424Z,8.79
2023-04-18T10:20:02.442Z,8.79
2023-04-18T10:21:02.401Z,8.80
2023-04-18T10:22:02.547Z,8.82
2023-04-18T10:23:02.424Z,8.85
2023-04-18T10:24:02.388Z,8.91
2023-04-18T10:25:02.398Z,8.94
2023-04-18T10:26:02.378Z,8.96
2023-04-18T10:27:02.353Z,8.98
2023-04-18T10:28:02.379Z,9.06
2023-04-18T10:29:02.325Z,9.08
2023-04-18T10:30:02.365Z,9.10
2023-04-18T10:31:02.332Z,9.06
2023-04-18T10:32:02.302Z,9.06
2023-04-18T10:33:02.342Z,9.08
2023-04-18T10:34:17.953Z,9.06
2023-04-18T10:35:02.313Z,9.08
2023-04-18T10:36:02.262Z,9.13
2023-04-18T10:37:02.260Z,9.13
2023-04-18T10:38:02.231Z,9.15
2023-04-18T10:39:02.228Z,9.13
2023-04-18T10:40:02.191Z,9.12
2023-04-18T10:41:02.204Z,9.13
2023-04-18T10:42:02.200Z,9.15
2023-04-18T10:43:02.253Z,9.16
2023-04-18T10:44:02.167Z,9.20
2023-04-18T10:45:02.165Z,9.22
2023-04-18T10:46:02.164Z,9.26
2023-04-18T10:47:02.129Z,9.27
2023-04-18T10:48:02.222Z,9.30
2023-04-18T10:49:02.158Z,9.30
2023-04-18T10:50:05.925Z,9.31
2023-04-18T10:51:02.117Z,9.35
2023-04-18T10:52:02.283Z,9.40
2023-04-18T10:53:02.088Z,9.42
2023-04-18T10:54:02.065Z,9.49
2023-04-18T10:55:02.074Z,9.53
2023-04-18T10:56:02.050Z,9.50
2023-04-18T10:57:01.993Z,9.52
2023-04-18T10:58:02.012Z,9.53
2023-04-18T10:59:02.037Z,9.55
2023-04-18T11:00:02.056Z,9.58
2023-04-18T11:01:02.057Z,9.62
2023-04-18T11:02:01.986Z,9.62
2023-04-18T11:03:02.101Z,9.62
2023-04-18T11:04:02.052Z,9.67
2023-04-18T11:05:01.943Z,9.73
2023-04-18T11:06:01.942Z,9.77
2023-04-18T11:07:01.929Z,9.78
2023-04-18T11:08:01.896Z,9.78
2023-04-18T11:09:01.904Z,9.83
2023-04-18T11:10:01.930Z,9.85
2023-04-18T11:11:01.872Z,9.88
2023-04-18T11:12:01.853Z,9.95
2023-04-18T11:13:01.847Z,10.02
2023-04-18T11:14:01.821Z,10.09
2023-04-18T11:15:01.824Z,10.11
2023-04-18T11:16:01.807Z,10.16
2023-04-18T11:17:01.992Z,10.22
2023-04-18T11:18:01.927Z,10.29
2023-04-18T11:19:01.791Z,10.36
2023-04-18T11:20:01.798Z,10.39
2023-04-18T11:21:01.765Z,10.42
2023-04-18T11:22:01.750Z,10.47
2023-04-18T11:23:01.799Z,10.52
2023-04-18T11:24:01.811Z,10.55
2023-04-18T11:25:01.818Z,10.57
2023-04-18T11:26:01.736Z,10.60
2023-04-18T11:27:01.756Z,10.68
2023-04-18T11:28:01.672Z,10.66
2023-04-18T11:29:01.669Z,10.68
2023-04-18T11:30:01.651Z,10.66
2023-04-18T11:31:01.775Z,10.68
2023-04-18T11:32:01.691Z,10.68
2023-04-18T11:33:01.619Z,10.76
2023-04-18T11:34:01.675Z,10.90
2023-04-18T11:35:01.597Z,10.99
2023-04-18T11:36:01.609Z,11.09
2023-04-18T11:37:01.599Z,11.24
2023-04-18T11:38:01.579Z,11.36
2023-04-18T11:39:01.536Z,11.53
2023-04-18T11:40:01.617Z,11.64
2023-04-18T11:41:01.542Z,11.60
2023-04-18T11:42:01.532Z,11.56
2023-04-18T11:43:01.497Z,11.56
2023-04-18T11:44:01.508Z,11.59
2023-04-18T11:45:01.523Z,11.56
2023-04-18T11:46:01.834Z,11.57
2023-04-18T11:47:01.483Z,11.59
2023-04-18T11:48:01.560Z,11.63
2023-04-18T11:49:01.431Z,11.69
2023-04-18T11:50:01.489Z,11.69
2023-04-18T11:51:01.463Z,11.74
2023-04-18T11:52:01.428Z,11.69
2023-04-18T11:53:01.404Z,11.72
2023-04-18T11:54:01.429Z,11.75
2023-04-18T11:55:01.407Z,11.79
2023-04-18T11:56:01.363Z,11.81
2023-04-18T11:57:01.362Z,11.85
2023-04-18T11:58:01.347Z,11.96
2023-04-18T11:59:01.326Z,12.00
2023-04-18T12:00:01.352Z,12.01
2023-04-18T12:01:01.323Z,11.94
2023-04-18T12:02:14.881Z,11.94
2023-04-18T12:03:01.505Z,11.93
2023-04-18T12:04:01.574Z,11.94
2023-04-18T12:05:01.606Z,11.96
2023-04-18T12:06:01.573Z,11.97
2023-04-18T12:07:01.284Z,11.97
2023-04-18T12:08:01.222Z,12.00
2023-04-18T12:09:01.279Z,12.13
2023-04-18T12:10:01.251Z,12.26
2023-04-18T12:11:01.207Z,12.30
2023-04-18T12:12:01.198Z,12.26
2023-04-18T12:13:01.231Z,12.22
2023-04-18T12:14:02.500Z,12.19
2023-04-18T12:15:01.180Z,12.18
2023-04-18T12:16:01.168Z,12.21
2023-04-18T12:17:01.130Z,12.18
2023-04-18T12:18:01.165Z,12.23
2023-04-18T12:19:01.110Z,12.23
2023-04-18T12:20:01.119Z,12.26
2023-04-18T12:21:01.094Z,12.34
2023-04-18T12:22:01.186Z,12.40
2023-04-18T12:23:01.039Z,12.37
2023-04-18T12:24:01.025Z,12.37
2023-04-18T12:25:01.038Z,12.41
2023-04-18T12:26:01.035Z,12.41
2023-04-18T12:27:01.044Z,12.36
2023-04-18T12:28:01.000Z,12.33
2023-04-18T12:29:01.006Z,12.31
2023-04-18T12:30:00.992Z,12.31
2023-04-18T12:31:01.044Z,12.36
2023-04-18T12:32:01.050Z,12.38
2023-04-18T12:33:00.929Z,12.41
2023-04-18T12:34:00.927Z,12.38
2023-04-18T12:35:00.933Z,12.51
2023-04-18T12:36:00.906Z,12.62
2023-04-18T12:37:00.908Z,12.66
2023-04-18T12:38:00.886Z,12.79
2023-04-18T12:39:00.907Z,12.89
2023-04-18T12:40:00.881Z,12.88
2023-04-18T12:41:00.856Z,12.92
2023-04-18T12:42:00.840Z,13.03
2023-04-18T12:43:03.447Z,13.03
2023-04-18T12:44:00.831Z,13.04
2023-04-18T12:45:00.825Z,12.92
2023-04-18T12:46:00.810Z,12.98
2023-04-18T12:47:00.809Z,13.01
2023-04-18T12:48:00.813Z,12.95
2023-04-18T12:49:00.768Z,12.91
2023-04-18T12:50:00.772Z,12.99
2023-04-18T12:51:00.746Z,13.06
2023-04-18T12:52:00.739Z,13.10
2023-04-18T12:53:00.738Z,13.03
2023-04-18T12:54:00.728Z,12.96
2023-04-18T12:55:00.729Z,12.95
2023-04-18T12:56:00.701Z,13.10
2023-04-18T12:57:00.678Z,13.14
2023-04-18T12:58:00.743Z,13.16
2023-04-18T12:59:00.647Z,13.16
2023-04-18T13:00:00.668Z,13.21
2023-04-18T13:01:00.669Z,13.13
2023-04-18T13:02:00.801Z,13.14
2023-04-18T13:03:00.940Z,13.13
2023-04-18T13:04:12.008Z,13.17
2023-04-18T13:05:00.780Z,13.22
2023-04-18T13:06:00.627Z,13.35
2023-04-18T13:07:00.574Z,13.44
2023-04-18T13:08:12.867Z,13.44
2023-04-18T13:09:00.639Z,13.53
2023-04-18T13:10:00.568Z,13.54
2023-04-18T13:11:00.556Z,13.50
2023-04-18T13:12:00.587Z,13.51
2023-04-18T13:13:00.538Z,13.53
2023-04-18T13:14:00.572Z,13.53